Time;durP1;ratioP1;P1;durP2;ratioP2;P2;SDS_P1;SDS_P2;PMS_P1;PMS_P2;Temp;Humidity;BMP_temperature;BMP_pressure;BME280_temperature;BME280_humidity;BME280_pressure;Samples;Min_cycle;Max_cycle;Signal;HPM_P1;HPM_P2
2023/09/02 00:00:07;;;;;;;1.40;1.10;;;18.60;90.30;;;;;;5055213;28;20370;-77
2023/09/02 00:02:33;;;;;;;2.15;1.25;;;18.60;90.30;;;;;;5055179;28;20522;-77
2023/09/02 00:04:58;;;;;;;2.55;1.30;;;18.60;90.40;;;;;;5053486;28;20083;-78
2023/09/02 00:07:23;;;;;;;2.40;1.35;;;18.50;90.30;;;;;;5055023;28;20021;-77
2023/09/02 00:09:49;;;;;;;1.83;1.17;;;18.50;90.40;;;;;;5055070;28;20090;-77
2023/09/02 00:12:15;;;;;;;2.50;1.20;;;18.50;90.40;;;;;;5054913;28;20025;-77
2023/09/02 00:14:40;;;;;;;1.88;1.30;;;18.50;90.30;;;;;;5054681;28;20088;-76
2023/09/02 00:17:06;;;;;;;1.52;1.02;;;18.60;90.40;;;;;;5053606;28;20397;-76
2023/09/02 00:19:31;;;;;;;1.88;1.17;;;18.50;90.40;;;;;;5054634;28;20104;-78
2023/09/02 00:21:57;;;;;;;1.50;1.08;;;18.50;90.40;;;;;;5053488;28;20020;-78
2023/09/02 00:24:22;;;;;;;1.83;1.10;;;18.50;90.40;;;;;;5054608;28;20155;-79
2023/09/02 00:26:48;;;;;;;2.75;1.42;;;18.50;90.40;;;;;;5053459;28;20115;-77
2023/09/02 00:29:13;;;;;;;2.42;1.38;;;18.50;90.40;;;;;;5053328;28;20016;-76
2023/09/02 00:31:39;;;;;;;2.08;1.40;;;18.60;90.40;;;;;;5053485;28;20025;-77
2023/09/02 00:34:04;;;;;;;1.42;1.08;;;18.50;90.40;;;;;;5054209;28;20030;-76
2023/09/02 00:36:30;;;;;;;2.15;1.10;;;18.60;90.40;;;;;;5054549;28;20028;-77
2023/09/02 00:39:00;;;;;;;2.85;1.40;;;18.60;90.30;;;;;;5054507;28;20025;-77
2023/09/02 00:41:39;;;;;;;1.92;1.15;;;18.60;90.30;;;;;;5054221;28;20028;-77
2023/09/02 00:44:05;;;;;;;1.92;1.13;;;18.60;90.30;;;;;;5054279;28;20032;-77
2023/09/02 00:46:31;;;;;;;1.85;1.20;;;18.60;90.40;;;;;;5052999;28;20394;-76
2023/09/02 00:48:57;;;;;;;2.25;1.10;;;18.60;90.40;;;;;;5052999;28;20371;-76
2023/09/02 00:51:22;;;;;;;1.92;1.20;;;18.60;90.30;;;;;;5054177;28;20071;-77
2023/09/02 00:53:48;;;;;;;1.38;1.13;;;18.60;90.30;;;;;;5052407;28;20025;-77
2023/09/02 00:56:15;;;;;;;1.85;1.10;;;18.60;90.40;;;;;;5052839;28;20025;-76
2023/09/02 00:58:41;;;;;;;1.85;1.20;;;18.50;90.40;;;;;;5052669;28;20025;-76
2023/09/02 01:01:06;;;;;;;1.77;1.08;;;18.60;90.40;;;;;;5054358;28;20081;-77
2023/09/02 01:03:35;;;;;;;1.83;1.20;;;18.50;90.40;;;;;;5052420;28;20037;-77
2023/09/02 01:06:02;;;;;;;2.17;1.35;;;18.50;90.40;;;;;;5053757;28;20025;-77
2023/09/02 01:08:29;;;;;;;1.80;1.20;;;18.50;90.40;;;;;;5052555;28;20390;-76
2023/09/02 01:10:55;;;;;;;2.42;1.30;;;18.50;90.40;;;;;;5052686;28;20024;-77
2023/09/02 01:13:21;;;;;;;1.92;1.23;;;18.50;90.40;;;;;;5053651;28;20020;-77
2023/09/02 01:15:46;;;;;;;1.95;1.20;;;18.50;90.50;;;;;;5053559;28;20028;-77
2023/09/02 01:18:12;;;;;;;1.48;1.08;;;18.50;90.40;;;;;;5053529;28;20044;-77
2023/09/02 01:20:57;;;;;;;2.42;1.20;;;18.50;90.50;;;;;;5052447;28;20032;-76
2023/09/02 01:24:00;;;;;;;2.13;1.20;;;18.50;90.40;;;;;;5053613;28;20028;-76
2023/09/02 01:26:29;;;;;;;2.50;1.20;;;18.50;90.50;;;;;;5047608;28;20052;-77
2023/09/02 01:29:00;;;;;;;1.63;1.05;;;18.50;90.50;;;;;;5053730;28;20025;-77
2023/09/02 01:31:29;;;;;;;1.65;1.15;;;18.50;90.40;;;;;;5053471;28;20024;-78
2023/09/02 01:33:54;;;;;;;2.75;1.30;;;18.50;90.40;;;;;;5051976;28;20025;-77
2023/09/02 01:36:22;;;;;;;2.13;1.10;;;18.50;90.40;;;;;;5052032;28;20102;-77
2023/09/02 01:38:51;;;;;;;1.75;1.20;;;18.60;90.40;;;;;;5053251;28;20087;-77
2023/09/02 01:41:17;;;;;;;1.98;1.20;;;18.60;90.40;;;;;;5053277;28;20484;-77
2023/09/02 01:43:44;;;;;;;1.63;1.20;;;18.60;90.40;;;;;;5053157;28;20192;-78
2023/09/02 01:46:10;;;;;;;2.03;1.25;;;18.60;90.50;;;;;;5051736;28;20029;-77
2023/09/02 01:48:37;;;;;;;1.48;1.20;;;18.60;90.50;;;;;;5053109;28;20083;-77
2023/09/02 01:51:03;;;;;;;1.75;1.20;;;18.60;90.40;;;;;;5051979;28;20021;-76
2023/09/02 01:53:29;;;;;;;1.45;1.10;;;18.60;90.40;;;;;;5052749;28;20052;-78
2023/09/02 01:55:56;;;;;;;2.28;1.20;;;18.50;90.40;;;;;;5053076;28;20036;-77
2023/09/02 01:58:22;;;;;;;1.92;1.02;;;18.60;90.40;;;;;;5052807;28;20025;-76
2023/09/02 02:00:47;;;;;;;1.58;1.20;;;18.50;90.40;;;;;;5051752;28;20028;-77
2023/09/02 02:03:37;;;;;;;1.85;1.10;;;18.50;90.40;;;;;;5052943;28;20029;-76
2023/09/02 02:06:06;;;;;;;2.20;1.25;;;18.50;90.40;;;;;;5051814;28;20040;-76
2023/09/02 02:08:46;;;;;;;1.80;1.25;;;18.50;90.50;;;;;;5051510;28;20035;-76
2023/09/02 02:11:14;;;;;;;1.38;1.02;;;18.50;90.50;;;;;;5052699;28;20031;-77
2023/09/02 02:13:42;;;;;;;2.05;1.30;;;18.50;90.50;;;;;;5052362;28;20032;-78
2023/09/02 02:16:07;;;;;;;1.90;1.05;;;18.50;90.50;;;;;;5051312;28;20115;-76
2023/09/02 02:18:33;;;;;;;1.73;1.23;;;18.50;90.50;;;;;;5052506;28;20079;-76
2023/09/02 02:21:02;;;;;;;1.52;1.05;;;18.50;90.50;;;;;;5052605;28;20029;-76
2023/09/02 02:23:28;;;;;;;1.52;1.10;;;18.50;90.60;;;;;;5051138;28;20025;-78
2023/09/02 02:25:59;;;;;;;1.73;1.25;;;18.50;90.60;;;;;;5051105;28;20033;-78
2023/09/02 02:28:25;;;;;;;1.98;1.10;;;18.50;90.50;;;;;;5052428;28;20013;-77
2023/09/02 02:30:50;;;;;;;2.00;1.10;;;18.50;90.60;;;;;;5052324;28;20036;-78
2023/09/02 02:33:16;;;;;;;1.55;1.15;;;18.50;90.50;;;;;;5052137;28;20485;-77
2023/09/02 02:35:41;;;;;;;2.10;1.10;;;18.50;90.50;;;;;;5052112;28;20136;-77
2023/09/02 02:38:07;;;;;;;2.25;1.27;;;18.50;90.50;;;;;;5052152;28;20086;-77
2023/09/02 02:40:32;;;;;;;1.58;1.23;;;18.50;90.50;;;;;;5050876;28;20033;-77
2023/09/02 02:42:58;;;;;;;1.50;1.10;;;18.50;90.50;;;;;;5051099;28;20028;-78
2023/09/02 02:45:23;;;;;;;1.98;1.20;;;18.60;90.40;;;;;;5051313;28;20390;-77
2023/09/02 02:47:49;;;;;;;1.83;1.20;;;18.60;90.50;;;;;;5052105;28;20371;-78
2023/09/02 02:50:14;;;;;;;1.30;1.05;;;18.60;90.50;;;;;;5050914;28;20025;-78
2023/09/02 02:52:40;;;;;;;2.05;1.13;;;18.60;90.50;;;;;;5054086;28;20413;-78
2023/09/02 02:55:06;;;;;;;1.60;1.08;;;18.50;90.40;;;;;;5056028;28;20184;-77
2023/09/02 02:57:31;;;;;;;1.85;1.15;;;18.60;90.50;;;;;;5071771;28;20091;-78
2023/09/02 02:59:57;;;;;;;1.33;1.08;;;18.50;90.50;;;;;;5070720;28;20116;-78
2023/09/02 03:02:22;;;;;;;2.05;1.23;;;18.50;90.50;;;;;;5071926;28;20070;-78
2023/09/02 03:04:48;;;;;;;2.13;1.30;;;18.50;90.50;;;;;;5071791;28;20275;-76
2023/09/02 03:07:18;;;;;;;1.20;1.00;;;18.50;90.50;;;;;;5070395;28;20492;-78
2023/09/02 03:09:43;;;;;;;2.00;1.33;;;18.50;90.50;;;;;;5070544;28;20050;-78
2023/09/02 03:12:09;;;;;;;2.22;1.35;;;18.50;90.50;;;;;;5070618;28;20012;-77
2023/09/02 03:14:34;;;;;;;1.50;1.20;;;18.50;90.60;;;;;;5070295;28;20061;-77
2023/09/02 03:17:00;;;;;;;2.05;1.30;;;18.50;90.60;;;;;;5070184;28;20115;-77
2023/09/02 03:19:26;;;;;;;2.03;1.20;;;18.50;90.60;;;;;;5071921;28;20021;-78
2023/09/02 03:21:51;;;;;;;2.67;1.50;;;18.50;90.60;;;;;;5070564;28;20056;-77
2023/09/02 03:24:17;;;;;;;2.10;1.30;;;18.50;90.60;;;;;;5070185;28;20481;-77
2023/09/02 03:26:43;;;;;;;2.15;1.33;;;18.50;90.60;;;;;;5071512;28;20037;-77
2023/09/02 03:29:08;;;;;;;1.80;1.23;;;18.40;90.60;;;;;;5071502;28;20041;-76
2023/09/02 03:31:34;;;;;;;1.10;1.00;;;18.40;90.60;;;;;;5070407;28;20389;-77
2023/09/02 03:33:59;;;;;;;1.70;1.23;;;18.50;90.60;;;;;;5071432;28;20032;-76
2023/09/02 03:36:25;;;;;;;1.90;1.33;;;18.50;90.60;;;;;;5071604;28;20103;-77
2023/09/02 03:38:50;;;;;;;1.25;1.00;;;18.50;90.80;;;;;;5071512;28;20020;-79
2023/09/02 03:41:20;;;;;;;2.53;1.48;;;18.50;90.50;;;;;;5071529;28;20025;-77
2023/09/02 03:43:46;;;;;;;1.58;1.08;;;18.50;90.50;;;;;;5071302;28;20027;-76
2023/09/02 03:46:13;;;;;;;1.52;1.13;;;18.50;90.50;;;;;;5069855;28;20484;-77
2023/09/02 03:48:38;;;;;;;1.77;1.30;;;18.50;90.50;;;;;;5071434;28;20025;-76
2023/09/02 03:51:12;;;;;;;2.47;1.27;;;18.50;90.50;;;;;;5070146;28;20047;-78
2023/09/02 03:53:40;;;;;;;2.05;1.50;;;18.50;90.50;;;;;;5071259;28;20051;-78
2023/09/02 03:56:06;;;;;;;2.00;1.20;;;18.50;90.50;;;;;;5070148;28;20071;-76
2023/09/02 03:58:31;;;;;;;1.52;1.20;;;18.50;90.50;;;;;;5071397;28;20455;-76
2023/09/02 04:00:57;;;;;;;1.92;1.25;;;18.50;90.50;;;;;;5071359;28;20104;-77
2023/09/02 04:03:24;;;;;;;1.75;1.20;;;18.50;90.50;;;;;;5071162;28;20066;-76
2023/09/02 04:05:49;;;;;;;3.92;1.40;;;18.50;90.60;;;;;;5071284;28;20053;-77
2023/09/02 04:08:21;;;;;;;3.55;1.60;;;18.50;90.60;;;;;;5069870;28;20481;-77
2023/09/02 04:10:51;;;;;;;2.08;1.33;;;18.50;90.60;;;;;;5070072;28;20481;-78
2023/09/02 04:13:17;;;;;;;1.98;1.35;;;18.50;90.60;;;;;;5071106;28;20051;-77
2023/09/02 04:15:42;;;;;;;1.67;1.20;;;18.40;90.60;;;;;;5071167;28;20063;-76
2023/09/02 04:18:08;;;;;;;2.35;1.30;;;18.40;90.60;;;;;;5069939;28;20389;-76
2023/09/02 04:20:36;;;;;;;2.05;1.30;;;18.40;90.60;;;;;;5070004;28;20024;-76
2023/09/02 04:23:02;;;;;;;1.63;1.27;;;18.40;90.60;;;;;;5069922;28;20032;-77
2023/09/02 04:25:27;;;;;;;1.67;1.20;;;18.40;90.60;;;;;;5070842;28;20028;-77
2023/09/02 04:27:53;;;;;;;3.17;1.50;;;18.40;90.60;;;;;;5069732;28;20050;-78
2023/09/02 04:30:19;;;;;;;2.72;1.40;;;18.40;90.60;;;;;;5073492;28;20032;-77
2023/09/02 04:32:47;;;;;;;2.00;1.10;;;18.50;90.70;;;;;;5073645;28;20385;-78
2023/09/02 04:35:13;;;;;;;1.83;1.20;;;18.50;90.70;;;;;;5074310;28;20020;-77
2023/09/02 04:37:38;;;;;;;2.13;1.30;;;18.50;90.70;;;;;;5074575;28;20500;-76
2023/09/02 04:40:08;;;;;;;1.95;1.35;;;18.50;90.60;;;;;;5074528;28;20047;-76
2023/09/02 04:42:33;;;;;;;2.40;1.45;;;18.50;90.60;;;;;;5074450;28;20051;-76
2023/09/02 04:44:59;;;;;;;1.90;1.20;;;18.50;90.60;;;;;;5072890;28;20024;-76
2023/09/02 04:47:24;;;;;;;1.77;1.20;;;18.50;90.60;;;;;;5074218;28;20060;-77
2023/09/02 04:49:50;;;;;;;2.13;1.25;;;18.50;90.60;;;;;;5072984;28;20021;-76
2023/09/02 04:52:15;;;;;;;1.92;1.27;;;18.50;90.60;;;;;;5071349;28;20024;-76
2023/09/02 04:54:45;;;;;;;2.13;1.30;;;18.50;90.60;;;;;;5068867;28;20025;-76
2023/09/02 04:57:10;;;;;;;1.90;1.30;;;18.50;90.60;;;;;;5069954;28;20021;-76
2023/09/02 04:59:36;;;;;;;2.28;1.33;;;18.50;90.60;;;;;;5074120;28;20035;-76
2023/09/02 05:02:01;;;;;;;2.10;1.30;;;18.50;90.60;;;;;;5074072;28;20111;-77
2023/09/02 05:04:27;;;;;;;2.50;1.50;;;18.50;90.60;;;;;;5072398;28;20041;-77
2023/09/02 05:06:52;;;;;;;1.77;1.20;;;18.40;90.60;;;;;;5073955;28;20322;-77
2023/09/02 05:09:18;;;;;;;2.25;1.40;;;18.50;90.60;;;;;;5070983;28;20031;-76
2023/09/02 05:11:43;;;;;;;2.88;1.50;;;18.40;90.60;;;;;;5073701;28;20020;-78
2023/09/02 05:14:09;;;;;;;2.17;1.30;;;18.50;90.70;;;;;;5073458;28;20405;-76
2023/09/02 05:16:34;;;;;;;1.45;1.15;;;18.50;90.70;;;;;;5074099;28;20071;-76
2023/09/02 05:19:00;;;;;;;2.13;1.40;;;18.50;90.70;;;;;;5073671;28;20035;-77
2023/09/02 05:21:26;;;;;;;2.03;1.20;;;18.40;90.70;;;;;;5073659;28;20033;-76
2023/09/02 05:23:52;;;;;;;2.35;1.40;;;18.40;90.70;;;;;;5072311;28;20474;-77
2023/09/02 05:26:18;;;;;;;1.92;1.30;;;18.50;90.70;;;;;;5073403;28;20020;-77
2023/09/02 05:28:43;;;;;;;2.28;1.30;;;18.40;90.70;;;;;;5073466;28;20473;-77
2023/09/02 05:31:09;;;;;;;1.92;1.20;;;18.40;90.70;;;;;;5073588;28;20020;-77
2023/09/02 05:33:35;;;;;;;1.90;1.20;;;18.40;90.70;;;;;;5072127;28;20599;-78
2023/09/02 05:36:00;;;;;;;2.00;1.30;;;18.40;90.70;;;;;;5073498;28;20030;-77
2023/09/02 05:38:26;;;;;;;1.63;1.10;;;18.40;90.70;;;;;;5073307;28;20028;-77
2023/09/02 05:40:52;;;;;;;1.92;1.23;;;18.40;90.70;;;;;;5073309;28;20504;-77
2023/09/02 05:43:17;;;;;;;1.55;1.08;;;18.50;90.70;;;;;;5073208;28;20024;-77
2023/09/02 05:45:43;;;;;;;2.17;1.42;;;18.50;90.70;;;;;;5072995;28;20082;-76
2023/09/02 05:48:08;;;;;;;2.22;1.30;;;18.50;90.60;;;;;;5071890;28;20489;-76
2023/09/02 05:50:34;;;;;;;1.75;1.20;;;18.50;90.60;;;;;;5073399;28;20027;-77
2023/09/02 05:52:59;;;;;;;1.98;1.20;;;18.50;90.70;;;;;;5073127;28;20063;-77
2023/09/02 05:55:25;;;;;;;1.90;1.20;;;18.50;90.70;;;;;;5072901;28;20051;-77
2023/09/02 05:57:50;;;;;;;2.28;1.30;;;18.50;90.60;;;;;;5071687;28;20024;-76
2023/09/02 06:00:16;;;;;;;1.75;1.20;;;18.50;90.60;;;;;;5071844;28;20029;-76
2023/09/02 06:02:42;;;;;;;2.85;1.40;;;18.50;90.60;;;;;;5071695;28;20048;-77
2023/09/02 06:05:07;;;;;;;2.00;1.17;;;18.50;90.60;;;;;;5072485;28;20040;-77
2023/09/02 06:07:33;;;;;;;1.70;1.20;;;18.50;90.70;;;;;;5072664;28;20029;-78
2023/09/02 06:09:58;;;;;;;1.45;1.15;;;18.50;90.70;;;;;;5071528;28;20104;-78
2023/09/02 06:12:24;;;;;;;1.50;1.20;;;18.40;90.70;;;;;;5072722;28;20025;-76
2023/09/02 06:14:49;;;;;;;3.00;1.48;;;18.40;90.70;;;;;;5071115;28;20029;-78
2023/09/02 06:17:15;;;;;;;4.53;1.67;;;18.40;90.70;;;;;;5071139;28;20025;-78
2023/09/02 06:19:41;;;;;;;1.90;1.40;;;18.40;90.70;;;;;;5072713;28;20054;-78
2023/09/02 06:22:06;;;;;;;1.45;1.10;;;18.50;90.70;;;;;;5071273;28;20020;-76
2023/09/02 06:24:32;;;;;;;1.98;1.10;;;18.40;90.70;;;;;;5070932;28;20178;-78
2023/09/02 06:27:03;;;;;;;1.63;1.20;;;18.40;90.70;;;;;;5072185;28;20020;-79
2023/09/02 06:29:32;;;;;;;2.58;1.40;;;18.40;90.70;;;;;;5072422;28;20028;-77
2023/09/02 06:31:58;;;;;;;2.45;1.45;;;18.50;90.80;;;;;;5072327;28;20021;-78
2023/09/02 06:34:23;;;;;;;3.55;1.38;;;18.40;90.70;;;;;;5072161;28;20096;-78
2023/09/02 06:36:49;;;;;;;2.50;1.30;;;18.40;90.80;;;;;;5070906;28;20182;-78
2023/09/02 06:39:14;;;;;;;1.67;1.10;;;18.50;90.80;;;;;;5070909;28;20021;-78
2023/09/02 06:41:42;;;;;;;1.88;1.35;;;18.50;90.80;;;;;;5072328;28;20035;-78
2023/09/02 06:44:08;;;;;;;2.35;1.30;;;18.50;90.70;;;;;;5070618;28;20025;-77
2023/09/02 06:46:35;;;;;;;2.60;1.30;;;18.50;90.70;;;;;;5070750;28;20029;-78
2023/09/02 06:49:00;;;;;;;1.73;1.20;;;18.50;90.60;;;;;;5072050;28;20444;-79
2023/09/02 06:51:26;;;;;;;2.30;1.30;;;18.50;90.60;;;;;;5071647;28;20016;-77
2023/09/02 06:53:51;;;;;;;1.73;1.25;;;18.50;90.60;;;;;;5071633;28;20021;-78
2023/09/02 06:56:17;;;;;;;2.75;1.40;;;18.50;90.70;;;;;;5071889;28;20054;-79
2023/09/02 06:58:43;;;;;;;2.42;1.48;;;18.50;90.60;;;;;;5070787;28;20025;-77
2023/09/02 07:01:22;;;;;;;2.63;1.40;;;18.50;90.70;;;;;;5070604;28;20035;-76
2023/09/02 07:03:48;;;;;;;2.17;1.30;;;18.50;90.60;;;;;;5070424;28;20024;-77
2023/09/02 07:06:15;;;;;;;2.53;1.30;;;18.50;90.70;;;;;;5071890;28;20025;-79
2023/09/02 07:08:41;;;;;;;3.22;1.65;;;18.50;90.70;;;;;;5071784;28;20090;-77
2023/09/02 07:11:09;;;;;;;2.92;1.63;;;18.50;90.70;;;;;;5070871;28;20087;-77
2023/09/02 07:13:38;;;;;;;3.75;1.83;;;18.50;90.70;;;;;;5071673;28;20178;-76
2023/09/02 07:16:05;;;;;;;2.83;1.55;;;18.40;90.70;;;;;;5071978;28;20036;-76
2023/09/02 07:18:32;;;;;;;2.40;1.50;;;18.40;90.80;;;;;;5071643;28;20078;-77
2023/09/02 07:21:02;;;;;;;2.67;1.50;;;18.40;90.80;;;;;;5070519;28;20032;-77
2023/09/02 07:23:29;;;;;;;2.25;1.23;;;18.40;90.80;;;;;;5070492;28;20031;-76
2023/09/02 07:25:59;;;;;;;2.85;1.60;;;18.40;90.80;;;;;;5071628;28;20032;-78
2023/09/02 07:28:28;;;;;;;2.63;1.67;;;18.40;90.80;;;;;;5070351;28;20016;-77
2023/09/02 07:31:00;;;;;;;2.83;1.60;;;18.40;90.80;;;;;;5071643;28;20035;-77
2023/09/02 07:33:26;;;;;;;2.63;1.50;;;18.40;90.80;;;;;;5071538;28;20568;-75
2023/09/02 07:35:52;;;;;;;2.63;1.63;;;18.40;90.80;;;;;;5070429;28;20050;-78
2023/09/02 07:38:17;;;;;;;3.97;1.83;;;18.40;90.90;;;;;;5071393;28;20029;-76
2023/09/02 07:40:43;;;;;;;2.67;1.50;;;18.40;90.80;;;;;;5070437;28;20078;-76
2023/09/02 07:43:08;;;;;;;2.78;1.52;;;18.50;90.80;;;;;;5071639;28;20042;-76
2023/09/02 07:45:34;;;;;;;3.47;1.70;;;18.50;90.80;;;;;;5071129;28;20457;-76
2023/09/02 07:47:59;;;;;;;2.45;1.45;;;18.50;90.80;;;;;;5071609;28;20048;-76
2023/09/02 07:50:25;;;;;;;3.38;1.50;;;18.50;90.80;;;;;;5071433;28;20017;-77
2023/09/02 07:52:50;;;;;;;2.58;1.50;;;18.50;90.80;;;;;;5071607;28;20460;-76
2023/09/02 07:55:16;;;;;;;2.47;1.38;;;18.50;90.80;;;;;;5071015;28;20541;-77
2023/09/02 07:57:42;;;;;;;3.45;1.80;;;18.50;90.70;;;;;;5070063;28;20044;-76
2023/09/02 08:00:08;;;;;;;3.47;1.77;;;18.50;90.80;;;;;;5071333;28;20028;-76
2023/09/02 08:02:33;;;;;;;3.30;1.60;;;18.50;90.70;;;;;;5070099;28;20162;-76
2023/09/02 08:04:59;;;;;;;4.20;1.90;;;18.50;90.70;;;;;;5071964;28;20056;-76
2023/09/02 08:07:24;;;;;;;3.88;1.73;;;18.50;90.80;;;;;;5074797;28;20034;-76
2023/09/02 08:09:50;;;;;;;2.95;1.58;;;18.50;90.80;;;;;;5074982;28;20024;-76
2023/09/02 08:12:16;;;;;;;2.42;1.42;;;18.50;90.80;;;;;;5074968;28;20056;-77
2023/09/02 08:14:41;;;;;;;3.03;1.63;;;18.50;90.80;;;;;;5074712;28;20047;-76
2023/09/02 08:17:07;;;;;;;4.72;1.83;;;18.50;90.80;;;;;;5074799;28;20027;-76
2023/09/02 08:19:33;;;;;;;3.03;1.55;;;18.50;90.80;;;;;;5073536;28;20036;-76
2023/09/02 08:21:59;;;;;;;2.50;1.67;;;18.50;90.80;;;;;;5074805;28;20020;-76
2023/09/02 08:24:24;;;;;;;3.35;1.73;;;18.50;90.80;;;;;;5073169;28;20020;-76
2023/09/02 08:26:50;;;;;;;3.40;1.90;;;18.50;90.80;;;;;;5074714;28;20082;-76
2023/09/02 08:29:15;;;;;;;2.67;1.50;;;18.50;90.80;;;;;;5074765;28;20533;-76
2023/09/02 08:31:41;;;;;;;2.63;1.50;;;18.50;90.80;;;;;;5073576;28;20031;-76
2023/09/02 08:34:06;;;;;;;3.50;1.50;;;18.50;90.80;;;;;;5074466;28;20127;-76
2023/09/02 08:36:32;;;;;;;3.20;1.75;;;18.50;90.80;;;;;;5074446;28;20043;-76
2023/09/02 08:38:57;;;;;;;3.00;1.70;;;18.50;90.80;;;;;;5074325;28;20025;-76
2023/09/02 08:41:30;;;;;;;2.92;1.70;;;18.50;90.90;;;;;;5073241;28;20020;-76
2023/09/02 08:44:00;;;;;;;3.72;2.03;;;18.50;90.80;;;;;;5074190;28;20107;-76
2023/09/02 08:46:27;;;;;;;3.17;1.70;;;18.50;90.80;;;;;;5074421;28;20028;-76
2023/09/02 08:48:55;;;;;;;3.40;1.90;;;18.60;90.80;;;;;;5074442;28;20397;-75
2023/09/02 08:51:22;;;;;;;3.95;1.92;;;18.50;90.70;;;;;;5072973;28;20029;-76
2023/09/02 08:53:48;;;;;;;4.00;2.17;;;18.60;90.70;;;;;;5072917;28;20040;-76
2023/09/02 08:56:14;;;;;;;3.35;1.70;;;18.60;90.60;;;;;;5073025;28;20032;-76
2023/09/02 08:58:40;;;;;;;3.85;1.90;;;18.60;90.70;;;;;;5074067;28;20027;-76
2023/09/02 09:01:07;;;;;;;3.03;1.65;;;18.60;90.70;;;;;;5072862;28;20543;-76
2023/09/02 09:03:33;;;;;;;2.83;1.65;;;18.60;90.70;;;;;;5072622;28;20119;-75
2023/09/02 09:06:04;;;;;;;3.70;1.90;;;18.60;90.70;;;;;;5072572;28;20032;-76
2023/09/02 09:08:31;;;;;;;3.22;1.70;;;18.60;90.70;;;;;;5072689;28;20066;-76
2023/09/02 09:10:57;;;;;;;2.88;1.70;;;18.60;90.70;;;;;;5074017;28;20028;-76
2023/09/02 09:13:25;;;;;;;3.13;1.70;;;18.60;90.70;;;;;;5072671;28;20086;-76
2023/09/02 09:15:54;;;;;;;3.22;1.67;;;18.50;90.70;;;;;;5072355;28;20401;-76
2023/09/02 09:18:20;;;;;;;2.80;1.58;;;18.60;90.70;;;;;;5073550;28;20051;-76
2023/09/02 09:20:45;;;;;;;3.38;1.80;;;18.60;90.70;;;;;;5073704;28;20485;-76
2023/09/02 09:23:11;;;;;;;2.60;1.50;;;18.60;90.70;;;;;;5073523;28;20040;-76
2023/09/02 09:25:36;;;;;;;3.10;1.67;;;18.60;90.70;;;;;;5072153;28;20077;-76
2023/09/02 09:28:09;;;;;;;3.17;1.73;;;18.60;90.60;;;;;;5073502;28;20021;-76
2023/09/02 09:30:35;;;;;;;9.50;3.85;;;18.60;90.60;;;;;;5072412;28;20032;-76
2023/09/02 09:33:04;;;;;;;9.35;5.05;;;18.60;90.70;;;;;;5072213;28;20035;-76
2023/09/02 09:35:30;;;;;;;9.57;5.03;;;18.60;90.70;;;;;;5071912;28;20027;-76
2023/09/02 09:37:56;;;;;;;8.85;5.20;;;18.70;90.70;;;;;;5073350;28;20028;-76
2023/09/02 09:40:31;;;;;;;10.80;5.40;;;18.70;90.70;;;;;;5073245;28;20377;-76
2023/09/02 09:42:58;;;;;;;10.15;5.40;;;18.70;90.70;;;;;;5072189;28;20033;-76
2023/09/02 09:45:24;;;;;;;8.95;5.10;;;18.70;90.70;;;;;;5071631;28;20101;-75
2023/09/02 09:47:50;;;;;;;9.27;5.00;;;18.70;90.60;;;;;;5073309;28;20048;-76
2023/09/02 09:50:16;;;;;;;8.40;4.55;;;18.80;90.60;;;;;;5071755;28;20482;-76
2023/09/02 09:53:01;;;;;;;8.77;5.10;;;18.80;90.50;;;;;;5073163;28;20053;-76
2023/09/02 09:55:30;;;;;;;9.25;5.10;;;18.80;90.50;;;;;;5071586;28;20111;-77
2023/09/02 09:58:00;;;;;;;11.13;4.90;;;18.80;90.40;;;;;;5072858;28;20029;-76
2023/09/02 10:00:27;;;;;;;10.05;5.40;;;18.80;90.40;;;;;;5071542;28;20032;-76
2023/09/02 10:02:54;;;;;;;8.02;4.45;;;18.80;90.40;;;;;;5071732;28;20481;-76
2023/09/02 10:05:38;;;;;;;8.10;4.80;;;18.80;90.40;;;;;;5070962;28;20628;-76
2023/09/02 10:08:06;;;;;;;8.63;5.18;;;18.70;90.40;;;;;;5072823;28;20389;-76
2023/09/02 10:10:36;;;;;;;9.57;4.97;;;18.80;90.50;;;;;;5072556;28;20020;-76
2023/09/02 10:13:02;;;;;;;7.75;4.25;;;18.80;90.50;;;;;;5071451;28;20029;-76
2023/09/02 10:15:28;;;;;;;9.23;4.97;;;18.80;90.40;;;;;;5072226;28;20025;-76
2023/09/02 10:17:56;;;;;;;9.02;4.68;;;18.80;90.40;;;;;;5072507;28;20070;-77
2023/09/02 10:20:28;;;;;;;7.30;4.55;;;18.80;90.70;;;;;;5072409;28;20021;-76
2023/09/02 10:22:57;;;;;;;8.80;4.65;;;18.80;90.50;;;;;;5071198;28;20032;-77
2023/09/02 10:25:29;;;;;;;10.20;4.50;;;18.80;90.50;;;;;;5070862;28;20017;-76
2023/09/02 10:28:04;;;;;;;8.63;4.60;;;18.80;90.50;;;;;;5071760;28;20020;-76
2023/09/02 10:30:43;;;;;;;7.75;4.38;;;18.80;90.50;;;;;;5072550;28;20051;-77
2023/09/02 10:33:22;;;;;;;7.57;4.70;;;18.70;90.60;;;;;;5072747;28;20021;-76
2023/09/02 10:35:57;;;;;;;7.00;3.83;;;18.70;90.60;;;;;;5072505;28;20025;-76
2023/09/02 10:38:26;;;;;;;7.75;4.20;;;18.80;90.50;;;;;;5072010;28;20024;-76
2023/09/02 10:41:00;;;;;;;7.78;4.20;;;18.70;90.50;;;;;;5072161;28;20081;-76
2023/09/02 10:43:26;;;;;;;7.72;4.53;;;18.80;90.50;;;;;;5072076;28;20052;-74
2023/09/02 10:45:52;;;;;;;6.85;4.07;;;18.80;90.50;;;;;;5071938;28;20063;-76
2023/09/02 10:48:18;;;;;;;7.03;4.03;;;18.80;90.40;;;;;;5071930;28;20489;-76
2023/09/02 10:50:44;;;;;;;6.05;3.70;;;18.90;90.30;;;;;;5072038;28;20032;-76
2023/09/02 10:53:10;;;;;;;7.18;4.10;;;18.90;90.20;;;;;;5071965;28;20401;-76
2023/09/02 10:56:02;;;;;;;6.45;3.83;;;18.90;90.20;;;;;;5071821;28;20026;-76
2023/09/02 10:58:45;;;;;;;6.63;3.72;;;18.90;90.20;;;;;;5070563;28;20047;-76
2023/09/02 11:01:11;;;;;;;7.30;4.50;;;18.90;90.20;;;;;;5071951;28;20528;-76
2023/09/02 11:03:51;;;;;;;7.15;3.92;;;18.90;90.30;;;;;;5071655;28;20051;-76
2023/09/02 11:06:17;;;;;;;7.28;3.92;;;18.80;90.30;;;;;;5071905;28;20081;-76
2023/09/02 11:08:47;;;;;;;7.30;4.40;;;18.80;90.40;;;;;;5071803;28;20028;-76
2023/09/02 11:11:12;;;;;;;9.23;4.22;;;18.80;90.40;;;;;;5071695;28;20481;-76
2023/09/02 11:14:17;;;;;;;7.03;3.90;;;18.80;90.50;;;;;;5071604;28;20025;-76
2023/09/02 11:16:43;;;;;;;6.88;4.07;;;18.70;90.40;;;;;;5029580;28;20068;-76
2023/09/02 11:19:08;;;;;;;7.40;3.97;;;18.80;90.50;;;;;;5029385;28;20049;-76
2023/09/02 11:21:38;;;;;;;6.50;3.90;;;18.80;90.50;;;;;;5038271;28;20068;-76
2023/09/02 11:24:20;;;;;;;6.47;3.90;;;18.80;90.50;;;;;;5071424;28;20021;-76
2023/09/02 11:26:56;;;;;;;6.85;4.00;;;18.80;90.50;;;;;;5071574;28;20024;-76
2023/09/02 11:29:26;;;;;;;6.65;3.78;;;18.80;90.50;;;;;;5071576;28;20066;-76
2023/09/02 11:31:59;;;;;;;7.40;4.35;;;18.80;90.50;;;;;;5071744;28;20027;-75
2023/09/02 11:34:29;;;;;;;6.43;3.90;;;18.80;90.50;;;;;;5070159;28;20116;-76
2023/09/02 11:36:58;;;;;;;6.85;3.63;;;18.80;90.40;;;;;;5070455;28;20020;-76
2023/09/02 11:39:28;;;;;;;6.35;3.83;;;18.90;90.40;;;;;;5073226;28;20020;-76
2023/09/02 11:42:10;;;;;;;6.53;3.53;;;18.90;90.30;;;;;;5075705;28;20029;-76
2023/09/02 11:44:36;;;;;;;6.35;3.78;;;19.00;90.30;;;;;;5073741;28;20032;-76
2023/09/02 11:47:02;;;;;;;6.53;3.78;;;19.00;90.20;;;;;;5075375;28;20533;-76
2023/09/02 11:49:28;;;;;;;6.45;3.58;;;19.00;90.10;;;;;;5074219;28;20028;-76
2023/09/02 11:51:54;;;;;;;6.30;3.65;;;19.10;90.00;;;;;;5075499;28;20104;-76
2023/09/02 11:54:19;;;;;;;6.25;3.45;;;19.10;90.00;;;;;;5075066;28;20020;-76
2023/09/02 11:57:00;;;;;;;6.82;3.65;;;19.10;90.00;;;;;;5074156;28;20021;-76
2023/09/02 11:59:26;;;;;;;5.90;3.50;;;19.10;90.00;;;;;;5074001;28;20029;-76
2023/09/02 12:02:16;;;;;;;6.10;3.65;;;19.10;90.00;;;;;;5074001;28;20039;-76
2023/09/02 12:04:44;;;;;;;;;;;19.10;90.00;;;;;;5074014;28;20120;-76
2023/09/02 12:07:10;;;;;;;5.75;3.58;;;19.10;90.00;;;;;;5075034;28;19999;-76
2023/09/02 12:09:36;;;;;;;6.18;3.45;;;19.10;90.00;;;;;;5073860;28;20056;-76
2023/09/02 12:12:03;;;;;;;5.75;3.40;;;19.10;90.00;;;;;;5075063;28;20530;-76
2023/09/02 12:14:28;;;;;;;6.30;3.55;;;19.10;90.00;;;;;;5074591;28;20033;-76
2023/09/02 12:17:00;;;;;;;5.90;3.45;;;19.10;90.00;;;;;;5074809;28;20032;-76
2023/09/02 12:19:26;;;;;;;5.93;3.25;;;19.00;90.10;;;;;;5073583;28;20043;-76
2023/09/02 12:21:53;;;;;;;5.93;3.22;;;19.10;90.10;;;;;;5073797;28;20332;-76
2023/09/02 12:24:19;;;;;;;5.93;3.50;;;19.00;90.10;;;;;;5073327;28;20444;-76
2023/09/02 12:26:46;;;;;;;6.10;3.53;;;19.10;90.10;;;;;;5073456;28;20028;-76
2023/09/02 12:29:19;;;;;;;6.05;3.20;;;19.00;90.10;;;;;;5073488;28;20111;-76
2023/09/02 12:31:58;;;;;;;5.90;3.50;;;19.00;90.10;;;;;;5074673;28;20025;-76
2023/09/02 12:34:34;;;;;;;5.82;3.40;;;19.00;90.20;;;;;;5074277;28;20090;-76
2023/09/02 12:37:16;;;;;;;6.07;3.53;;;19.00;90.20;;;;;;5073349;28;20477;-76
2023/09/02 12:39:42;;;;;;;5.75;3.58;;;19.00;90.20;;;;;;5074516;28;20482;-76
2023/09/02 12:42:18;;;;;;;6.20;3.50;;;19.00;90.20;;;;;;5073167;28;20020;-76
2023/09/02 12:44:48;;;;;;;5.93;3.42;;;19.00;90.20;;;;;;5072665;28;20032;-76
2023/09/02 12:47:20;;;;;;;5.55;3.38;;;19.10;90.10;;;;;;5072909;28;20484;-76
2023/09/02 12:49:46;;;;;;;5.70;3.13;;;19.10;90.10;;;;;;5073578;28;20059;-76